sensor_id;sensor_type;location;lat;lon;timestamp;P1;durP1;ratioP1;P2;durP2;ratioP2
13469;SDS011;6807;48.682;9.032;2023-04-09T00:02:21;17.42;;;12.20;;
13469;SDS011;6807;48.682;9.032;2023-04-09T00:04:52;14.25;;;12.10;;
13469;SDS011;6807;48.682;9.032;2023-04-09T00:07:19;13.48;;;11.40;;
13469;SDS011;6807;48.682;9.032;2023-04-09T00:09:46;15.43;;;11.43;;
13469;SDS011;6807;48.682;9.032;2023-04-09T00:12:15;13.40;;;11.50;;
13469;SDS011;6807;48.682;9.032;2023-04-09T00:14:41;14.43;;;12.10;;
13469;SDS011;6807;48.682;9.032;2023-04-09T00:17:08;15.00;;;12.07;;
13469;SDS011;6807;48.682;9.032;2023-04-09T00:19:36;13.57;;;11.35;;
13469;SDS011;6807;48.682;9.032;2023-04-09T00:22:03;12.95;;;10.98;;
13469;SDS011;6807;48.682;9.032;2023-04-09T00:24:30;14.02;;;11.35;;
13469;SDS011;6807;48.682;9.032;2023-04-09T00:26:57;14.43;;;11.35;;
13469;SDS011;6807;48.682;9.032;2023-04-09T00:29:27;14.85;;;12.35;;
13469;SDS011;6807;48.682;9.032;2023-04-09T00:31:56;15.57;;;12.68;;
13469;SDS011;6807;48.682;9.032;2023-04-09T00:34:23;15.43;;;12.85;;
13469;SDS011;6807;48.682;9.032;2023-04-09T00:36:50;15.05;;;12.23;;
13469;SDS011;6807;48.682;9.032;2023-04-09T00:39:20;14.80;;;12.02;;
13469;SDS011;6807;48.682;9.032;2023-04-09T00:41:48;15.38;;;11.75;;
13469;SDS011;6807;48.682;9.032;2023-04-09T00:44:15;15.02;;;12.27;;
13469;SDS011;6807;48.682;9.032;2023-04-09T00:46:44;14.80;;;12.38;;
13469;SDS011;6807;48.682;9.032;2023-04-09T00:49:13;15.85;;;12.23;;
13469;SDS011;6807;48.682;9.032;2023-04-09T00:51:40;14.63;;;12.50;;
13469;SDS011;6807;48.682;9.032;2023-04-09T00:54:07;12.65;;;11.27;;
13469;SDS011;6807;48.682;9.032;2023-04-09T00:56:34;14.45;;;12.13;;
13469;SDS011;6807;48.682;9.032;2023-04-09T00:59:03;17.90;;;12.60;;
13469;SDS011;6807;48.682;9.032;2023-04-09T01:01:31;14.27;;;12.38;;
13469;SDS011;6807;48.682;9.032;2023-04-09T01:04:01;16.23;;;12.20;;
13469;SDS011;6807;48.682;9.032;2023-04-09T01:06:31;13.13;;;11.57;;
13469;SDS011;6807;48.682;9.032;2023-04-09T01:09:11;14.18;;;11.55;;
13469;SDS011;6807;48.682;9.032;2023-04-09T01:11:45;14.80;;;12.73;;
13469;SDS011;6807;48.682;9.032;2023-04-09T01:14:23;16.42;;;11.77;;
13469;SDS011;6807;48.682;9.032;2023-04-09T01:16:56;17.20;;;12.70;;
13469;SDS011;6807;48.682;9.032;2023-04-09T01:19:37;14.38;;;12.00;;
13469;SDS011;6807;48.682;9.032;2023-04-09T01:22:13;15.68;;;12.48;;
13469;SDS011;6807;48.682;9.032;2023-04-09T01:24:56;16.60;;;12.73;;
13469;SDS011;6807;48.682;9.032;2023-04-09T01:27:33;13.82;;;12.15;;
13469;SDS011;6807;48.682;9.032;2023-04-09T01:30:10;15.32;;;12.27;;
13469;SDS011;6807;48.682;9.032;2023-04-09T01:32:40;15.57;;;12.98;;
13469;SDS011;6807;48.682;9.032;2023-04-09T01:35:10;17.70;;;12.57;;
13469;SDS011;6807;48.682;9.032;2023-04-09T01:37:42;14.50;;;12.50;;
13469;SDS011;6807;48.682;9.032;2023-04-09T01:40:10;19.00;;;12.50;;
13469;SDS011;6807;48.682;9.032;2023-04-09T01:42:37;16.40;;;13.48;;
13469;SDS011;6807;48.682;9.032;2023-04-09T01:45:06;15.23;;;12.82;;
13469;SDS011;6807;48.682;9.032;2023-04-09T01:47:35;14.80;;;11.88;;
13469;SDS011;6807;48.682;9.032;2023-04-09T01:50:03;16.85;;;13.18;;
13469;SDS011;6807;48.682;9.032;2023-04-09T01:52:31;15.23;;;11.68;;
13469;SDS011;6807;48.682;9.032;2023-04-09T01:54:58;16.20;;;13.25;;
13469;SDS011;6807;48.682;9.032;2023-04-09T01:57:25;15.23;;;12.27;;
13469;SDS011;6807;48.682;9.032;2023-04-09T01:59:51;17.15;;;13.98;;
13469;SDS011;6807;48.682;9.032;2023-04-09T02:02:23;15.07;;;12.45;;
13469;SDS011;6807;48.682;9.032;2023-04-09T02:05:02;16.13;;;13.25;;
13469;SDS011;6807;48.682;9.032;2023-04-09T02:07:34;15.25;;;12.55;;
13469;SDS011;6807;48.682;9.032;2023-04-09T02:10:06;16.63;;;13.20;;
13469;SDS011;6807;48.682;9.032;2023-04-09T02:12:36;14.98;;;12.88;;
13469;SDS011;6807;48.682;9.032;2023-04-09T02:15:05;14.35;;;11.73;;
13469;SDS011;6807;48.682;9.032;2023-04-09T02:17:37;15.25;;;12.15;;
13469;SDS011;6807;48.682;9.032;2023-04-09T02:20:06;13.95;;;12.07;;
13469;SDS011;6807;48.682;9.032;2023-04-09T02:22:34;17.52;;;13.07;;
13469;SDS011;6807;48.682;9.032;2023-04-09T02:25:01;18.20;;;13.70;;
13469;SDS011;6807;48.682;9.032;2023-04-09T02:27:28;15.73;;;13.13;;
13469;SDS011;6807;48.682;9.032;2023-04-09T02:29:55;16.83;;;12.15;;
13469;SDS011;6807;48.682;9.032;2023-04-09T02:32:22;15.75;;;12.65;;
13469;SDS011;6807;48.682;9.032;2023-04-09T02:34:48;16.38;;;13.23;;
13469;SDS011;6807;48.682;9.032;2023-04-09T02:37:17;16.27;;;12.30;;
13469;SDS011;6807;48.682;9.032;2023-04-09T02:39:44;18.52;;;13.38;;
13469;SDS011;6807;48.682;9.032;2023-04-09T02:42:10;17.23;;;13.43;;
13469;SDS011;6807;48.682;9.032;2023-04-09T02:44:37;18.45;;;13.30;;
13469;SDS011;6807;48.682;9.032;2023-04-09T02:47:04;15.48;;;13.20;;
13469;SDS011;6807;48.682;9.032;2023-04-09T02:49:31;16.55;;;13.35;;
13469;SDS011;6807;48.682;9.032;2023-04-09T02:51:58;14.90;;;12.27;;
13469;SDS011;6807;48.682;9.032;2023-04-09T02:54:27;16.67;;;12.98;;
13469;SDS011;6807;48.682;9.032;2023-04-09T02:56:54;15.73;;;12.65;;
13469;SDS011;6807;48.682;9.032;2023-04-09T02:59:21;17.38;;;12.88;;
13469;SDS011;6807;48.682;9.032;2023-04-09T03:01:50;14.88;;;13.10;;
13469;SDS011;6807;48.682;9.032;2023-04-09T03:04:18;15.00;;;12.23;;
13469;SDS011;6807;48.682;9.032;2023-04-09T03:06:46;15.82;;;12.18;;
13469;SDS011;6807;48.682;9.032;2023-04-09T03:09:12;16.52;;;12.80;;
13469;SDS011;6807;48.682;9.032;2023-04-09T03:11:41;17.83;;;12.90;;
13469;SDS011;6807;48.682;9.032;2023-04-09T03:14:10;14.00;;;12.27;;
13469;SDS011;6807;48.682;9.032;2023-04-09T03:16:37;16.13;;;13.23;;
13469;SDS011;6807;48.682;9.032;2023-04-09T03:19:04;17.30;;;13.90;;
13469;SDS011;6807;48.682;9.032;2023-04-09T03:21:31;17.67;;;14.13;;
13469;SDS011;6807;48.682;9.032;2023-04-09T03:23:58;17.15;;;13.18;;
13469;SDS011;6807;48.682;9.032;2023-04-09T03:26:26;17.10;;;13.32;;
13469;SDS011;6807;48.682;9.032;2023-04-09T03:28:55;18.58;;;13.50;;
13469;SDS011;6807;48.682;9.032;2023-04-09T03:31:22;19.30;;;14.20;;
13469;SDS011;6807;48.682;9.032;2023-04-09T03:33:50;16.63;;;13.25;;
13469;SDS011;6807;48.682;9.032;2023-04-09T03:36:18;15.40;;;12.27;;
13469;SDS011;6807;48.682;9.032;2023-04-09T03:38:45;15.68;;;12.43;;
13469;SDS011;6807;48.682;9.032;2023-04-09T03:41:12;14.70;;;11.77;;
13469;SDS011;6807;48.682;9.032;2023-04-09T03:43:38;19.38;;;13.38;;
13469;SDS011;6807;48.682;9.032;2023-04-09T03:46:11;17.40;;;13.45;;
13469;SDS011;6807;48.682;9.032;2023-04-09T03:48:38;19.15;;;14.45;;
13469;SDS011;6807;48.682;9.032;2023-04-09T03:51:11;18.70;;;13.98;;
13469;SDS011;6807;48.682;9.032;2023-04-09T03:53:38;16.58;;;13.43;;
13469;SDS011;6807;48.682;9.032;2023-04-09T03:56:05;16.05;;;13.27;;
13469;SDS011;6807;48.682;9.032;2023-04-09T03:58:32;16.75;;;12.85;;
13469;SDS011;6807;48.682;9.032;2023-04-09T04:01:01;17.98;;;13.35;;
13469;SDS011;6807;48.682;9.032;2023-04-09T04:03:29;16.85;;;13.43;;
13469;SDS011;6807;48.682;9.032;2023-04-09T04:05:58;16.52;;;13.20;;
13469;SDS011;6807;48.682;9.032;2023-04-09T04:08:26;17.50;;;13.80;;
13469;SDS011;6807;48.682;9.032;2023-04-09T04:10:53;17.48;;;13.90;;
13469;SDS011;6807;48.682;9.032;2023-04-09T04:13:20;17.83;;;14.35;;
13469;SDS011;6807;48.682;9.032;2023-04-09T04:15:49;18.23;;;14.57;;
13469;SDS011;6807;48.682;9.032;2023-04-09T04:18:17;19.40;;;14.98;;
13469;SDS011;6807;48.682;9.032;2023-04-09T04:20:47;22.30;;;15.07;;
13469;SDS011;6807;48.682;9.032;2023-04-09T04:23:14;17.42;;;14.05;;
13469;SDS011;6807;48.682;9.032;2023-04-09T04:25:41;18.35;;;14.30;;
13469;SDS011;6807;48.682;9.032;2023-04-09T04:28:09;18.23;;;14.30;;
13469;SDS011;6807;48.682;9.032;2023-04-09T04:30:36;17.35;;;13.50;;
13469;SDS011;6807;48.682;9.032;2023-04-09T04:33:07;16.73;;;12.95;;
13469;SDS011;6807;48.682;9.032;2023-04-09T04:35:34;16.13;;;13.20;;
13469;SDS011;6807;48.682;9.032;2023-04-09T04:41:22;15.60;;;12.35;;
13469;SDS011;6807;48.682;9.032;2023-04-09T04:44:16;16.92;;;13.60;;
13469;SDS011;6807;48.682;9.032;2023-04-09T04:46:43;16.92;;;13.00;;
13469;SDS011;6807;48.682;9.032;2023-04-09T04:49:10;16.73;;;13.18;;
13469;SDS011;6807;48.682;9.032;2023-04-09T04:51:37;19.00;;;13.68;;
13469;SDS011;6807;48.682;9.032;2023-04-09T04:54:04;17.75;;;14.02;;
13469;SDS011;6807;48.682;9.032;2023-04-09T04:56:32;22.33;;;16.48;;
13469;SDS011;6807;48.682;9.032;2023-04-09T04:58:59;17.45;;;14.40;;
13469;SDS011;6807;48.682;9.032;2023-04-09T05:01:26;21.27;;;14.73;;
13469;SDS011;6807;48.682;9.032;2023-04-09T05:04:00;17.77;;;14.23;;
13469;SDS011;6807;48.682;9.032;2023-04-09T05:25:56;16.33;;;12.65;;
13469;SDS011;6807;48.682;9.032;2023-04-09T05:28:24;17.70;;;13.85;;
13469;SDS011;6807;48.682;9.032;2023-04-09T05:30:51;17.33;;;13.82;;
13469;SDS011;6807;48.682;9.032;2023-04-09T05:37:55;20.50;;;14.40;;
13469;SDS011;6807;48.682;9.032;2023-04-09T05:39:50;16.70;;;13.60;;
13469;SDS011;6807;48.682;9.032;2023-04-09T05:42:18;20.13;;;15.25;;
13469;SDS011;6807;48.682;9.032;2023-04-09T05:44:53;20.85;;;15.80;;
13469;SDS011;6807;48.682;9.032;2023-04-09T05:47:20;22.33;;;15.13;;
13469;SDS011;6807;48.682;9.032;2023-04-09T05:49:47;19.98;;;15.10;;
13469;SDS011;6807;48.682;9.032;2023-04-09T05:52:15;18.38;;;15.25;;
13469;SDS011;6807;48.682;9.032;2023-04-09T05:54:42;17.58;;;14.23;;
13469;SDS011;6807;48.682;9.032;2023-04-09T05:57:09;18.35;;;14.50;;
13469;SDS011;6807;48.682;9.032;2023-04-09T05:59:37;17.42;;;14.02;;
13469;SDS011;6807;48.682;9.032;2023-04-09T06:02:21;16.00;;;14.27;;
13469;SDS011;6807;48.682;9.032;2023-04-09T06:04:49;18.33;;;14.88;;
13469;SDS011;6807;48.682;9.032;2023-04-09T06:07:20;17.98;;;14.80;;
13469;SDS011;6807;48.682;9.032;2023-04-09T06:09:47;16.77;;;14.00;;
13469;SDS011;6807;48.682;9.032;2023-04-09T06:12:17;15.55;;;12.88;;
13469;SDS011;6807;48.682;9.032;2023-04-09T06:14:59;18.33;;;15.20;;
13469;SDS011;6807;48.682;9.032;2023-04-09T06:17:29;16.75;;;13.98;;
13469;SDS011;6807;48.682;9.032;2023-04-09T06:19:56;18.70;;;13.48;;
13469;SDS011;6807;48.682;9.032;2023-04-09T06:22:23;16.38;;;13.43;;
13469;SDS011;6807;48.682;9.032;2023-04-09T06:24:50;15.88;;;12.95;;
13469;SDS011;6807;48.682;9.032;2023-04-09T06:27:17;13.23;;;11.65;;
13469;SDS011;6807;48.682;9.032;2023-04-09T06:29:46;15.10;;;12.18;;
13469;SDS011;6807;48.682;9.032;2023-04-09T06:32:17;13.45;;;11.82;;
13469;SDS011;6807;48.682;9.032;2023-04-09T06:34:45;14.15;;;10.98;;
13469;SDS011;6807;48.682;9.032;2023-04-09T06:37:12;12.80;;;11.02;;
13469;SDS011;6807;48.682;9.032;2023-04-09T06:39:39;13.30;;;11.43;;
13469;SDS011;6807;48.682;9.032;2023-04-09T06:42:06;11.95;;;10.60;;
13469;SDS011;6807;48.682;9.032;2023-04-09T06:44:33;14.48;;;11.18;;
13469;SDS011;6807;48.682;9.032;2023-04-09T06:47:00;12.40;;;11.15;;
13469;SDS011;6807;48.682;9.032;2023-04-09T06:49:27;11.45;;;10.00;;
13469;SDS011;6807;48.682;9.032;2023-04-09T06:51:56;11.07;;;9.98;;
13469;SDS011;6807;48.682;9.032;2023-04-09T06:54:23;12.50;;;10.80;;
13469;SDS011;6807;48.682;9.032;2023-04-09T06:56:50;12.32;;;10.25;;
13469;SDS011;6807;48.682;9.032;2023-04-09T06:59:17;11.98;;;9.88;;
13469;SDS011;6807;48.682;9.032;2023-04-09T07:01:53;11.23;;;9.95;;
13469;SDS011;6807;48.682;9.032;2023-04-09T07:04:20;10.80;;;9.00;;
13469;SDS011;6807;48.682;9.032;2023-04-09T07:06:47;10.15;;;9.07;;
13469;SDS011;6807;48.682;9.032;2023-04-09T07:09:18;10.13;;;8.70;;
13469;SDS011;6807;48.682;9.032;2023-04-09T07:11:46;9.93;;;8.85;;
13469;SDS011;6807;48.682;9.032;2023-04-09T07:14:13;10.82;;;8.57;;
13469;SDS011;6807;48.682;9.032;2023-04-09T07:16:40;9.70;;;8.70;;
13469;SDS011;6807;48.682;9.032;2023-04-09T07:19:10;10.07;;;9.07;;
13469;SDS011;6807;48.682;9.032;2023-04-09T07:21:37;12.00;;;8.95;;
13469;SDS011;6807;48.682;9.032;2023-04-09T07:24:04;10.23;;;9.13;;
13469;SDS011;6807;48.682;9.032;2023-04-09T07:26:33;9.20;;;8.20;;
13469;SDS011;6807;48.682;9.032;2023-04-09T07:29:00;8.93;;;8.02;;
13469;SDS011;6807;48.682;9.032;2023-04-09T07:31:29;8.82;;;7.93;;
13469;SDS011;6807;48.682;9.032;2023-04-09T07:33:59;9.02;;;8.13;;
13469;SDS011;6807;48.682;9.032;2023-04-09T07:36:27;9.10;;;7.72;;
13469;SDS011;6807;48.682;9.032;2023-04-09T07:38:55;8.60;;;7.70;;
13469;SDS011;6807;48.682;9.032;2023-04-09T07:42:08;7.88;;;7.07;;
13469;SDS011;6807;48.682;9.032;2023-04-09T07:44:53;8.32;;;7.53;;
13469;SDS011;6807;48.682;9.032;2023-04-09T07:47:32;6.75;;;6.15;;
13469;SDS011;6807;48.682;9.032;2023-04-09T07:49:59;12.52;;;7.72;;
13469;SDS011;6807;48.682;9.032;2023-04-09T07:52:57;7.85;;;7.05;;
13469;SDS011;6807;48.682;9.032;2023-04-09T08:39:01;5.82;;;5.28;;
13469;SDS011;6807;48.682;9.032;2023-04-09T08:41:48;5.20;;;4.70;;
13469;SDS011;6807;48.682;9.032;2023-04-09T08:51:17;5.03;;;4.53;;
13469;SDS011;6807;48.682;9.032;2023-04-09T08:53:46;4.75;;;4.32;;
13469;SDS011;6807;48.682;9.032;2023-04-09T08:56:18;4.40;;;4.00;;
13469;SDS011;6807;48.682;9.032;2023-04-09T08:58:46;4.15;;;3.75;;
13469;SDS011;6807;48.682;9.032;2023-04-09T09:01:18;5.38;;;4.60;;
13469;SDS011;6807;48.682;9.032;2023-04-09T09:03:52;5.60;;;5.07;;
13469;SDS011;6807;48.682;9.032;2023-04-09T09:06:22;5.53;;;5.03;;
13469;SDS011;6807;48.682;9.032;2023-04-09T09:09:03;6.32;;;4.40;;
13469;SDS011;6807;48.682;9.032;2023-04-09T09:11:34;6.28;;;5.25;;
13469;SDS011;6807;48.682;9.032;2023-04-09T09:14:03;4.97;;;4.47;;
13469;SDS011;6807;48.682;9.032;2023-04-09T09:16:33;5.57;;;5.00;;
13469;SDS011;6807;48.682;9.032;2023-04-09T09:19:04;5.90;;;5.30;;
13469;SDS011;6807;48.682;9.032;2023-04-09T09:21:32;5.47;;;4.95;;
13469;SDS011;6807;48.682;9.032;2023-04-09T09:24:00;5.45;;;4.95;;
13469;SDS011;6807;48.682;9.032;2023-04-09T09:26:28;6.30;;;5.47;;
13469;SDS011;6807;48.682;9.032;2023-04-09T09:28:57;5.63;;;5.13;;
13469;SDS011;6807;48.682;9.032;2023-04-09T09:31:30;6.40;;;5.80;;
13469;SDS011;6807;48.682;9.032;2023-04-09T09:34:10;6.60;;;6.00;;
13469;SDS011;6807;48.682;9.032;2023-04-09T09:36:37;5.18;;;4.68;;
13469;SDS011;6807;48.682;9.032;2023-04-09T09:39:08;6.07;;;5.47;;
13469;SDS011;6807;48.682;9.032;2023-04-09T09:41:37;5.47;;;4.97;;
13469;SDS011;6807;48.682;9.032;2023-04-09T09:44:07;5.90;;;5.30;;
13469;SDS011;6807;48.682;9.032;2023-04-09T09:46:35;7.05;;;6.35;;
13469;SDS011;6807;48.682;9.032;2023-04-09T09:49:03;9.32;;;5.80;;
13469;SDS011;6807;48.682;9.032;2023-04-09T09:51:31;6.30;;;5.70;;
13469;SDS011;6807;48.682;9.032;2023-04-09T09:54:01;6.78;;;6.07;;
13469;SDS011;6807;48.682;9.032;2023-04-09T09:56:29;6.70;;;5.82;;
13469;SDS011;6807;48.682;9.032;2023-04-09T09:59:01;5.57;;;5.00;;
13469;SDS011;6807;48.682;9.032;2023-04-09T10:01:38;5.50;;;5.00;;
13469;SDS011;6807;48.682;9.032;2023-04-09T10:04:06;4.40;;;4.00;;
13469;SDS011;6807;48.682;9.032;2023-04-09T10:06:37;5.18;;;4.40;;
13469;SDS011;6807;48.682;9.032;2023-04-09T10:09:08;5.60;;;4.63;;
13469;SDS011;6807;48.682;9.032;2023-04-09T10:11:36;6.45;;;5.60;;
13469;SDS011;6807;48.682;9.032;2023-04-09T10:14:08;5.72;;;5.07;;
13469;SDS011;6807;48.682;9.032;2023-04-09T10:16:37;6.75;;;6.05;;
13469;SDS011;6807;48.682;9.032;2023-04-09T10:19:04;5.85;;;5.25;;
13469;SDS011;6807;48.682;9.032;2023-04-09T10:21:37;5.53;;;4.80;;
13469;SDS011;6807;48.682;9.032;2023-04-09T10:24:08;5.68;;;5.10;;
13469;SDS011;6807;48.682;9.032;2023-04-09T10:26:38;6.03;;;5.32;;
13469;SDS011;6807;48.682;9.032;2023-04-09T10:29:08;6.22;;;5.40;;
13469;SDS011;6807;48.682;9.032;2023-04-09T10:31:45;5.90;;;5.40;;
13469;SDS011;6807;48.682;9.032;2023-04-09T10:34:14;5.60;;;5.10;;
13469;SDS011;6807;48.682;9.032;2023-04-09T10:36:45;6.05;;;5.45;;
13469;SDS011;6807;48.682;9.032;2023-04-09T10:45:28;6.05;;;5.45;;
13469;SDS011;6807;48.682;9.032;2023-04-09T10:48:26;6.20;;;5.18;;
13469;SDS011;6807;48.682;9.032;2023-04-09T10:51:42;5.65;;;5.07;;
13469;SDS011;6807;48.682;9.032;2023-04-09T10:54:41;5.35;;;4.72;;
13469;SDS011;6807;48.682;9.032;2023-04-09T10:57:14;6.10;;;5.18;;
13469;SDS011;6807;48.682;9.032;2023-04-09T10:59:53;6.40;;;5.80;;
13469;SDS011;6807;48.682;9.032;2023-04-09T11:05:37;6.18;;;4.90;;
13469;SDS011;6807;48.682;9.032;2023-04-09T11:08:43;5.88;;;5.28;;
13469;SDS011;6807;48.682;9.032;2023-04-09T11:11:11;5.72;;;5.13;;
13469;SDS011;6807;48.682;9.032;2023-04-09T11:13:46;6.07;;;5.35;;
13469;SDS011;6807;48.682;9.032;2023-04-09T11:16:37;7.00;;;5.07;;
13469;SDS011;6807;48.682;9.032;2023-04-09T11:19:38;5.80;;;5.15;;
13469;SDS011;6807;48.682;9.032;2023-04-09T11:29:15;3.78;;;3.47;;
13469;SDS011;6807;48.682;9.032;2023-04-09T11:31:43;5.38;;;4.88;;
13469;SDS011;6807;48.682;9.032;2023-04-09T11:34:12;4.07;;;3.50;;
13469;SDS011;6807;48.682;9.032;2023-04-09T11:36:47;3.63;;;3.33;;
13469;SDS011;6807;48.682;9.032;2023-04-09T11:39:34;4.35;;;3.95;;
13469;SDS011;6807;48.682;9.032;2023-04-09T11:42:02;4.18;;;3.42;;
13469;SDS011;6807;48.682;9.032;2023-04-09T11:44:31;3.88;;;3.58;;
13469;SDS011;6807;48.682;9.032;2023-04-09T11:46:58;4.22;;;3.88;;
13469;SDS011;6807;48.682;9.032;2023-04-09T11:49:28;4.00;;;3.60;;
13469;SDS011;6807;48.682;9.032;2023-04-09T11:51:56;4.38;;;3.97;;
13469;SDS011;6807;48.682;9.032;2023-04-09T11:54:31;4.88;;;3.83;;
13469;SDS011;6807;48.682;9.032;2023-04-09T11:57:05;4.53;;;4.13;;
13469;SDS011;6807;48.682;9.032;2023-04-09T11:59:36;4.07;;;3.67;;
13469;SDS011;6807;48.682;9.032;2023-04-09T12:02:08;4.47;;;4.07;;
13469;SDS011;6807;48.682;9.032;2023-04-09T12:04:51;4.50;;;4.10;;
13469;SDS011;6807;48.682;9.032;2023-04-09T12:07:20;4.47;;;4.07;;
13469;SDS011;6807;48.682;9.032;2023-04-09T12:09:47;4.45;;;4.05;;
13469;SDS011;6807;48.682;9.032;2023-04-09T12:12:17;4.68;;;4.28;;
13469;SDS011;6807;48.682;9.032;2023-04-09T12:14:46;4.60;;;4.18;;
13469;SDS011;6807;48.682;9.032;2023-04-09T12:17:19;4.43;;;4.03;;
13469;SDS011;6807;48.682;9.032;2023-04-09T12:19:47;4.57;;;4.18;;
13469;SDS011;6807;48.682;9.032;2023-04-09T12:22:14;5.05;;;4.13;;
13469;SDS011;6807;48.682;9.032;2023-04-09T12:24:41;5.57;;;4.60;;
13469;SDS011;6807;48.682;9.032;2023-04-09T12:27:08;4.13;;;3.72;;
13469;SDS011;6807;48.682;9.032;2023-04-09T12:29:36;5.10;;;4.65;;
13469;SDS011;6807;48.682;9.032;2023-04-09T12:32:04;4.78;;;4.28;;
13469;SDS011;6807;48.682;9.032;2023-04-09T12:34:32;5.18;;;4.40;;
13469;SDS011;6807;48.682;9.032;2023-04-09T12:37:00;4.55;;;4.15;;
13469;SDS011;6807;48.682;9.032;2023-04-09T12:39:27;4.95;;;4.53;;
13469;SDS011;6807;48.682;9.032;2023-04-09T12:41:54;5.40;;;4.90;;
13469;SDS011;6807;48.682;9.032;2023-04-09T12:44:21;4.82;;;4.43;;
13469;SDS011;6807;48.682;9.032;2023-04-09T12:46:49;4.70;;;4.30;;
13469;SDS011;6807;48.682;9.032;2023-04-09T12:49:17;4.43;;;4.03;;
13469;SDS011;6807;48.682;9.032;2023-04-09T12:51:44;5.30;;;4.80;;
13469;SDS011;6807;48.682;9.032;2023-04-09T12:54:11;4.70;;;4.30;;
13469;SDS011;6807;48.682;9.032;2023-04-09T12:56:38;5.13;;;4.60;;
13469;SDS011;6807;48.682;9.032;2023-04-09T12:59:05;5.15;;;4.65;;
13469;SDS011;6807;48.682;9.032;2023-04-09T13:01:32;4.63;;;4.22;;
13469;SDS011;6807;48.682;9.032;2023-04-09T13:03:59;4.68;;;4.20;;
13469;SDS011;6807;48.682;9.032;2023-04-09T13:06:27;4.47;;;4.07;;
13469;SDS011;6807;48.682;9.032;2023-04-09T13:08:54;4.93;;;4.13;;
13469;SDS011;6807;48.682;9.032;2023-04-09T13:11:22;5.20;;;4.70;;
13469;SDS011;6807;48.682;9.032;2023-04-09T13:13:49;5.35;;;4.85;;
13469;SDS011;6807;48.682;9.032;2023-04-09T13:16:16;4.20;;;3.80;;
13469;SDS011;6807;48.682;9.032;2023-04-09T13:18:43;4.55;;;4.15;;
13469;SDS011;6807;48.682;9.032;2023-04-09T13:21:10;4.93;;;4.43;;
13469;SDS011;6807;48.682;9.032;2023-04-09T13:23:40;5.05;;;4.22;;
13469;SDS011;6807;48.682;9.032;2023-04-09T13:26:07;4.80;;;4.22;;
13469;SDS011;6807;48.682;9.032;2023-04-09T13:28:34;5.03;;;4.53;;
13469;SDS011;6807;48.682;9.032;2023-04-09T13:31:01;4.68;;;4.20;;
13469;SDS011;6807;48.682;9.032;2023-04-09T13:33:28;4.47;;;4.07;;
13469;SDS011;6807;48.682;9.032;2023-04-09T13:35:55;4.70;;;4.22;;
13469;SDS011;6807;48.682;9.032;2023-04-09T13:38:22;4.90;;;4.40;;
13469;SDS011;6807;48.682;9.032;2023-04-09T13:40:50;3.90;;;3.50;;
13469;SDS011;6807;48.682;9.032;2023-04-09T13:43:18;3.92;;;3.63;;
13469;SDS011;6807;48.682;9.032;2023-04-09T13:45:45;4.57;;;4.18;;
13469;SDS011;6807;48.682;9.032;2023-04-09T13:48:13;4.30;;;3.90;;
13469;SDS011;6807;48.682;9.032;2023-04-09T13:50:40;4.63;;;4.22;;
13469;SDS011;6807;48.682;9.032;2023-04-09T13:53:07;4.95;;;4.15;;
13469;SDS011;6807;48.682;9.032;2023-04-09T13:55:37;5.18;;;4.38;;
13469;SDS011;6807;48.682;9.032;2023-04-09T13:58:24;5.35;;;4.10;;
13469;SDS011;6807;48.682;9.032;2023-04-09T14:00:51;4.20;;;3.80;;
13469;SDS011;6807;48.682;9.032;2023-04-09T14:03:18;3.85;;;3.55;;
13469;SDS011;6807;48.682;9.032;2023-04-09T14:05:47;3.80;;;3.50;;
13469;SDS011;6807;48.682;9.032;2023-04-09T14:08:14;4.22;;;3.83;;
13469;SDS011;6807;48.682;9.032;2023-04-09T14:10:41;4.30;;;3.90;;
13469;SDS011;6807;48.682;9.032;2023-04-09T14:13:09;4.13;;;3.65;;
13469;SDS011;6807;48.682;9.032;2023-04-09T14:15:36;4.47;;;4.07;;
13469;SDS011;6807;48.682;9.032;2023-04-09T14:18:03;4.20;;;3.80;;
13469;SDS011;6807;48.682;9.032;2023-04-09T14:20:30;4.15;;;3.75;;
13469;SDS011;6807;48.682;9.032;2023-04-09T14:22:58;3.85;;;3.42;;
13469;SDS011;6807;48.682;9.032;2023-04-09T14:25:25;4.18;;;3.78;;
13469;SDS011;6807;48.682;9.032;2023-04-09T14:27:52;4.30;;;3.90;;
13469;SDS011;6807;48.682;9.032;2023-04-09T14:30:21;4.68;;;4.20;;
13469;SDS011;6807;48.682;9.032;2023-04-09T14:32:47;4.40;;;3.92;;
13469;SDS011;6807;48.682;9.032;2023-04-09T14:35:14;4.50;;;4.10;;
13469;SDS011;6807;48.682;9.032;2023-04-09T14:37:41;5.40;;;4.43;;
13469;SDS011;6807;48.682;9.032;2023-04-09T14:40:08;3.88;;;3.58;;
13469;SDS011;6807;48.682;9.032;2023-04-09T14:42:36;4.03;;;3.70;;
13469;SDS011;6807;48.682;9.032;2023-04-09T14:45:04;3.85;;;3.45;;
13469;SDS011;6807;48.682;9.032;2023-04-09T14:47:33;3.30;;;3.05;;
13469;SDS011;6807;48.682;9.032;2023-04-09T14:50:00;4.28;;;3.13;;
13469;SDS011;6807;48.682;9.032;2023-04-09T14:52:27;4.15;;;3.67;;
13469;SDS011;6807;48.682;9.032;2023-04-09T14:54:54;4.15;;;3.70;;
13469;SDS011;6807;48.682;9.032;2023-04-09T15:01:31;4.43;;;3.88;;
13469;SDS011;6807;48.682;9.032;2023-04-09T15:03:59;3.88;;;3.47;;
13469;SDS011;6807;48.682;9.032;2023-04-09T15:06:27;4.55;;;3.90;;
13469;SDS011;6807;48.682;9.032;2023-04-09T15:09:02;4.10;;;3.70;;
13469;SDS011;6807;48.682;9.032;2023-04-09T15:11:29;4.13;;;3.72;;
13469;SDS011;6807;48.682;9.032;2023-04-09T15:13:56;4.88;;;4.00;;
13469;SDS011;6807;48.682;9.032;2023-04-09T15:16:23;4.07;;;3.67;;
13469;SDS011;6807;48.682;9.032;2023-04-09T15:18:52;6.22;;;5.00;;
13469;SDS011;6807;48.682;9.032;2023-04-09T15:24:14;5.10;;;4.47;;
13469;SDS011;6807;48.682;9.032;2023-04-09T15:26:41;5.18;;;3.90;;
13469;SDS011;6807;48.682;9.032;2023-04-09T15:29:08;4.50;;;3.95;;
13469;SDS011;6807;48.682;9.032;2023-04-09T15:31:35;4.95;;;4.10;;
13469;SDS011;6807;48.682;9.032;2023-04-09T15:34:02;5.60;;;4.18;;
13469;SDS011;6807;48.682;9.032;2023-04-09T15:36:29;4.47;;;3.88;;
13469;SDS011;6807;48.682;9.032;2023-04-09T15:38:56;4.30;;;3.90;;
13469;SDS011;6807;48.682;9.032;2023-04-09T15:41:24;4.05;;;3.65;;
13469;SDS011;6807;48.682;9.032;2023-04-09T15:43:51;3.83;;;3.45;;
13469;SDS011;6807;48.682;9.032;2023-04-09T15:46:18;4.22;;;3.83;;
13469;SDS011;6807;48.682;9.032;2023-04-09T15:48:45;4.50;;;3.90;;
13469;SDS011;6807;48.682;9.032;2023-04-09T15:51:12;4.15;;;3.75;;
13469;SDS011;6807;48.682;9.032;2023-04-09T15:53:40;4.50;;;4.10;;
13469;SDS011;6807;48.682;9.032;2023-04-09T15:56:09;4.53;;;4.13;;
13469;SDS011;6807;48.682;9.032;2023-04-09T15:58:41;4.93;;;4.43;;
13469;SDS011;6807;48.682;9.032;2023-04-09T16:01:08;4.88;;;4.00;;
13469;SDS011;6807;48.682;9.032;2023-04-09T16:03:36;5.40;;;4.28;;
13469;SDS011;6807;48.682;9.032;2023-04-09T16:06:05;4.93;;;4.18;;
13469;SDS011;6807;48.682;9.032;2023-04-09T16:08:33;5.55;;;4.35;;
13469;SDS011;6807;48.682;9.032;2023-04-09T16:11:01;5.60;;;4.47;;
13469;SDS011;6807;48.682;9.032;2023-04-09T16:13:28;4.60;;;3.97;;
13469;SDS011;6807;48.682;9.032;2023-04-09T16:15:56;5.15;;;4.65;;
13469;SDS011;6807;48.682;9.032;2023-04-09T16:18:24;5.38;;;4.45;;
13469;SDS011;6807;48.682;9.032;2023-04-09T16:20:53;4.72;;;4.13;;
13469;SDS011;6807;48.682;9.032;2023-04-09T16:23:21;6.78;;;4.25;;
13469;SDS011;6807;48.682;9.032;2023-04-09T16:25:49;5.20;;;4.70;;
13469;SDS011;6807;48.682;9.032;2023-04-09T16:28:17;4.75;;;4.22;;
13469;SDS011;6807;48.682;9.032;2023-04-09T16:30:48;5.35;;;4.10;;
13469;SDS011;6807;48.682;9.032;2023-04-09T16:33:19;5.75;;;4.22;;
13469;SDS011;6807;48.682;9.032;2023-04-09T16:35:47;5.30;;;3.85;;
13469;SDS011;6807;48.682;9.032;2023-04-09T16:40:44;4.95;;;4.13;;
13469;SDS011;6807;48.682;9.032;2023-04-09T16:43:11;5.78;;;4.50;;
13469;SDS011;6807;48.682;9.032;2023-04-09T16:45:38;4.82;;;4.43;;
13469;SDS011;6807;48.682;9.032;2023-04-09T16:48:05;5.68;;;4.88;;